Time;durP1;ratioP1;P1;durP2;ratioP2;P2;SDS_P1;SDS_P2;PMS_P1;PMS_P2;Temp;Humidity;BMP_temperature;BMP_pressure;BME280_temperature;BME280_humidity;BME280_pressure;Samples;Min_cycle;Max_cycle;Signal;HPM_P1;HPM_P2
2022/08/31 00:04:46;;;;;;;4.53;3.40;;;25.70;39.00;;;;;;5057756;28;21027;-88
2022/08/31 00:07:13;;;;;;;7.50;3.40;;;25.60;38.80;;;;;;5060043;28;20991;-86
2022/08/31 00:09:39;;;;;;;3.67;3.37;;;25.70;38.90;;;;;;5060030;28;20459;-86
2022/08/31 00:12:07;;;;;;;4.70;3.80;;;25.60;39.10;;;;;;5074734;28;20457;-87
2022/08/31 00:14:34;;;;;;;4.33;3.90;;;25.60;38.90;;;;;;5061419;28;20486;-86
2022/08/31 00:17:01;;;;;;;3.77;3.17;;;25.60;39.40;;;;;;5042560;28;20995;-88
2022/08/31 00:19:28;;;;;;;5.47;3.30;;;25.60;39.50;;;;;;5043350;28;20804;-86
2022/08/31 00:21:56;;;;;;;5.53;3.43;;;25.60;39.30;;;;;;5070737;28;20463;-89
2022/08/31 00:24:23;;;;;;;3.60;3.30;;;25.60;39.40;;;;;;5079959;28;20522;-87
2022/08/31 00:26:50;;;;;;;5.73;3.77;;;25.70;39.40;;;;;;5076168;28;20826;-85
2022/08/31 00:29:18;;;;;;;3.10;2.90;;;25.60;39.30;;;;;;5035200;28;20460;-86
2022/08/31 00:31:44;;;;;;;5.43;3.43;;;25.60;38.70;;;;;;5068350;28;20448;-87
2022/08/31 00:34:11;;;;;;;6.20;4.00;;;25.60;38.90;;;;;;5062477;28;20960;-87
2022/08/31 00:36:38;;;;;;;5.03;3.57;;;25.60;39.10;;;;;;5063007;28;20476;-86
2022/08/31 00:39:07;;;;;;;4.00;3.60;;;25.50;39.90;;;;;;5063617;28;20451;-86
2022/08/31 00:41:37;;;;;;;6.23;4.17;;;25.50;40.10;;;;;;5063742;28;20452;-87
2022/08/31 00:44:06;;;;;;;3.90;3.10;;;25.50;40.20;;;;;;5032804;28;20448;-88
2022/08/31 00:46:37;;;;;;;6.60;3.33;;;25.50;39.60;;;;;;5067978;28;20475;-86
2022/08/31 00:49:08;;;;;;;4.60;3.53;;;25.40;39.90;;;;;;5032225;28;20500;-86
2022/08/31 00:51:39;;;;;;;4.40;3.47;;;25.40;40.50;;;;;;5036016;28;20939;-87
2022/08/31 00:54:11;;;;;;;4.50;4.10;;;25.40;40.10;;;;;;5054403;28;20547;-86
2022/08/31 00:56:40;;;;;;;4.70;3.50;;;25.40;40.50;;;;;;5076977;28;20495;-86
2022/08/31 00:59:07;;;;;;;4.53;3.30;;;25.50;40.80;;;;;;5034617;28;20528;-86
2022/08/31 01:01:34;;;;;;;5.07;3.40;;;25.40;40.90;;;;;;5065051;28;20450;-87
2022/08/31 01:04:01;;;;;;;5.13;3.70;;;25.40;40.60;;;;;;5060097;28;20827;-88
2022/08/31 01:06:29;;;;;;;3.70;3.40;;;25.40;40.80;;;;;;5060992;28;20472;-87
2022/08/31 01:08:58;;;;;;;3.50;3.20;;;25.40;39.70;;;;;;5042607;28;20567;-87
2022/08/31 01:11:28;;;;;;;3.93;3.50;;;25.30;40.60;;;;;;5051900;28;20448;-86
2022/08/31 01:13:55;;;;;;;4.20;3.80;;;25.30;40.70;;;;;;5051688;28;20462;-87
2022/08/31 01:16:27;;;;;;;4.00;3.70;;;25.30;41.10;;;;;;5051078;28;20476;-87
2022/08/31 01:18:58;;;;;;;3.43;3.13;;;25.30;40.30;;;;;;5029958;28;20502;-86
2022/08/31 01:21:30;;;;;;;3.83;3.40;;;25.30;40.80;;;;;;5061148;28;20452;-90
2022/08/31 01:24:01;;;;;;;4.87;3.70;;;25.30;40.70;;;;;;5043808;28;20463;-87
2022/08/31 01:26:31;;;;;;;5.27;3.70;;;25.30;41.30;;;;;;5053683;28;20476;-88
2022/08/31 01:29:03;;;;;;;3.83;3.50;;;25.30;41.30;;;;;;5074754;28;20484;-86
2022/08/31 01:31:33;;;;;;;3.87;3.57;;;25.30;41.50;;;;;;5066662;28;20444;-89
2022/08/31 01:34:00;;;;;;;3.50;3.20;;;25.30;41.20;;;;;;5058583;28;20451;-86
2022/08/31 01:36:28;;;;;;;4.87;3.77;;;25.30;41.20;;;;;;5060644;28;20472;-87
2022/08/31 01:38:58;;;;;;;5.50;3.47;;;25.30;41.50;;;;;;5040279;28;20462;-87
2022/08/31 01:41:25;;;;;;;4.67;3.73;;;25.30;41.60;;;;;;5056845;28;20875;-86
2022/08/31 01:43:53;;;;;;;4.30;3.90;;;25.20;41.80;;;;;;5025973;28;20456;-87
2022/08/31 01:46:20;;;;;;;4.33;3.80;;;25.20;41.60;;;;;;5031372;28;20672;-86
2022/08/31 01:48:49;;;;;;;6.40;3.70;;;25.20;41.60;;;;;;5038786;28;20474;-90
2022/08/31 01:51:19;;;;;;;5.07;4.30;;;25.20;41.60;;;;;;5045779;28;20510;-89
2022/08/31 01:53:49;;;;;;;4.33;4.03;;;25.20;41.70;;;;;;5028817;28;20437;-87
2022/08/31 01:56:20;;;;;;;5.97;3.93;;;25.20;41.80;;;;;;5080527;28;20489;-87
2022/08/31 01:58:47;;;;;;;4.27;3.87;;;25.20;41.70;;;;;;5053044;28;20444;-87
2022/08/31 02:01:39;;;;;;;5.40;4.17;;;25.20;41.80;;;;;;5078097;28;20482;-88
2022/08/31 02:04:08;;;;;;;4.37;3.97;;;24.80;42.20;;;;;;5062312;28;21028;-90
2022/08/31 02:06:37;;;;;;;5.10;4.60;;;24.80;42.80;;;;;;5055317;28;20829;-87
2022/08/31 02:09:06;;;;;;;4.30;3.80;;;24.80;42.80;;;;;;5062032;28;20449;-87
2022/08/31 02:11:35;;;;;;;6.43;4.60;;;24.90;42.80;;;;;;5038871;28;20459;-87
2022/08/31 02:14:03;;;;;;;6.70;4.43;;;25.00;42.80;;;;;;5060622;28;20456;-86
2022/08/31 02:16:30;;;;;;;4.70;4.27;;;25.00;42.50;;;;;;5066171;28;21178;-88
2022/08/31 02:18:57;;;;;;;4.80;4.30;;;25.00;42.70;;;;;;5061984;28;20538;-89
2022/08/31 02:21:25;;;;;;;5.53;4.13;;;24.90;42.70;;;;;;5064812;28;20555;-87
2022/08/31 02:23:52;;;;;;;4.57;3.97;;;24.90;43.00;;;;;;5047621;28;20439;-88
2022/08/31 02:26:19;;;;;;;4.30;3.90;;;24.90;43.00;;;;;;5074494;28;20460;-91
2022/08/31 02:28:48;;;;;;;4.60;4.17;;;25.00;43.30;;;;;;5047930;28;20460;-88
2022/08/31 02:31:16;;;;;;;7.30;4.30;;;24.90;43.40;;;;;;5048376;28;20455;-87
2022/08/31 02:33:50;;;;;;;5.23;4.07;;;24.90;43.60;;;;;;5068796;28;20435;-86
2022/08/31 02:36:20;;;;;;;5.40;4.90;;;24.90;43.50;;;;;;5049697;28;20477;-87
2022/08/31 02:38:48;;;;;;;4.57;4.20;;;24.90;43.60;;;;;;5057155;28;20456;-87
2022/08/31 02:41:16;;;;;;;4.80;4.30;;;25.00;43.40;;;;;;5046932;28;20458;-87
2022/08/31 02:43:43;;;;;;;4.90;4.40;;;25.00;43.20;;;;;;5058286;28;20484;-87
2022/08/31 02:46:12;;;;;;;4.63;4.23;;;24.80;42.90;;;;;;5062272;28;20472;-87
2022/08/31 02:48:54;;;;;;;6.43;4.80;;;24.80;43.50;;;;;;5040672;28;20952;-90
2022/08/31 02:51:21;;;;;;;5.40;4.00;;;24.90;43.90;;;;;;5040976;28;20458;-87
2022/08/31 02:53:49;;;;;;;5.97;4.37;;;24.90;43.80;;;;;;5046784;28;20551;-87
2022/08/31 02:56:16;;;;;;;4.60;4.20;;;24.90;43.70;;;;;;5055609;28;20517;-87
2022/08/31 02:58:43;;;;;;;5.43;4.53;;;24.90;43.50;;;;;;5039386;28;20943;-88
2022/08/31 03:01:12;;;;;;;6.30;5.30;;;24.90;43.80;;;;;;5047268;28;21452;-87
2022/08/31 03:03:39;;;;;;;5.47;4.73;;;24.90;43.80;;;;;;5034259;28;20456;-90
2022/08/31 03:06:06;;;;;;;4.80;4.33;;;24.80;43.80;;;;;;5041389;28;20484;-88
2022/08/31 03:08:33;;;;;;;4.37;3.53;;;24.80;44.10;;;;;;5053577;28;20956;-87
2022/08/31 03:11:01;;;;;;;7.43;4.90;;;24.80;43.80;;;;;;5041883;28;20459;-87
2022/08/31 03:13:28;;;;;;;5.23;4.73;;;24.90;43.90;;;;;;5061376;28;20456;-88
2022/08/31 03:15:55;;;;;;;4.80;4.40;;;24.90;44.10;;;;;;5058798;28;20480;-88
2022/08/31 03:18:24;;;;;;;5.47;4.70;;;24.90;44.00;;;;;;5055715;28;20485;-89
2022/08/31 03:20:51;;;;;;;4.73;4.33;;;24.90;44.20;;;;;;5072853;28;20448;-88
2022/08/31 03:23:18;;;;;;;8.37;5.03;;;24.80;44.00;;;;;;5043253;28;20451;-87
2022/08/31 03:25:46;;;;;;;4.80;4.40;;;24.80;44.30;;;;;;5028820;28;21067;-87
2022/08/31 03:28:14;;;;;;;6.27;4.63;;;24.80;44.30;;;;;;5064248;28;20454;-86
2022/08/31 03:30:48;;;;;;;5.07;3.97;;;24.80;44.20;;;;;;5065116;28;20895;-86
2022/08/31 03:33:15;;;;;;;4.67;4.27;;;24.80;44.10;;;;;;5043703;28;20456;-89
2022/08/31 03:35:45;;;;;;;5.00;4.40;;;24.90;44.30;;;;;;5048248;28;20879;-89
2022/08/31 03:38:14;;;;;;;5.33;4.80;;;24.80;44.10;;;;;;5063987;28;20444;-87
2022/08/31 03:40:42;;;;;;;5.00;4.43;;;24.70;44.40;;;;;;5064726;28;21310;-89
2022/08/31 03:43:10;;;;;;;7.37;5.17;;;24.70;44.60;;;;;;5046278;28;20543;-87
2022/08/31 03:45:38;;;;;;;7.10;5.30;;;24.70;44.90;;;;;;5045643;28;20550;-88
2022/08/31 03:48:06;;;;;;;5.30;4.80;;;24.70;44.70;;;;;;5045854;28;20505;-86
2022/08/31 03:50:33;;;;;;;4.73;4.00;;;24.80;44.90;;;;;;5044940;28;20517;-87
2022/08/31 03:53:08;;;;;;;7.00;4.33;;;24.80;44.80;;;;;;5059607;28;20534;-89
2022/08/31 03:55:37;;;;;;;7.10;4.80;;;24.80;44.30;;;;;;5041249;28;20481;-87
2022/08/31 03:58:05;;;;;;;11.10;4.80;;;24.70;44.60;;;;;;5065664;28;20803;-90
2022/08/31 04:00:33;;;;;;;6.10;5.10;;;24.60;45.50;;;;;;5056862;28;20464;-87
2022/08/31 04:03:05;;;;;;;5.37;4.90;;;24.60;44.80;;;;;;5049039;28;20431;-89
2022/08/31 04:05:34;;;;;;;5.70;4.30;;;24.70;45.00;;;;;;5060714;28;20480;-87
2022/08/31 04:08:24;;;;;;;11.37;4.80;;;24.70;44.90;;;;;;5041442;28;20445;-87
2022/08/31 04:10:52;;;;;;;5.20;4.77;;;24.80;44.50;;;;;;5074932;28;20504;-88
2022/08/31 04:13:22;;;;;;;5.13;4.63;;;24.80;44.20;;;;;;5060186;28;20531;-87
2022/08/31 04:16:27;;;;;;;4.10;3.80;;;24.80;44.80;;;;;;5077270;28;20845;-91
2022/08/31 04:19:00;;;;;;;4.60;4.20;;;24.70;44.80;;;;;;5057215;28;20443;-87
2022/08/31 04:21:30;;;;;;;4.67;4.27;;;24.70;44.80;;;;;;5062808;28;20563;-87
2022/08/31 04:24:00;;;;;;;5.73;4.80;;;24.80;44.80;;;;;;5036478;28;20505;-87
2022/08/31 04:26:31;;;;;;;8.03;4.90;;;24.70;44.80;;;;;;5042461;28;20440;-88
2022/08/31 04:28:59;;;;;;;6.20;4.70;;;24.70;45.00;;;;;;5066289;28;20527;-86
2022/08/31 04:31:27;;;;;;;5.13;4.60;;;24.70;45.20;;;;;;5030739;28;20444;-87
2022/08/31 04:33:55;;;;;;;5.63;4.57;;;24.70;45.20;;;;;;5031069;28;20580;-87
2022/08/31 04:36:24;;;;;;;6.90;5.20;;;24.70;45.40;;;;;;5045263;28;20856;-89
2022/08/31 04:38:55;;;;;;;5.00;4.50;;;24.80;45.60;;;;;;5034776;28;20451;-86
2022/08/31 04:41:26;;;;;;;6.40;5.47;;;24.70;45.60;;;;;;5042415;28;20453;-87
2022/08/31 04:43:55;;;;;;;5.27;4.77;;;24.70;45.70;;;;;;5034160;28;20509;-87
2022/08/31 04:46:24;;;;;;;5.47;4.90;;;24.70;45.40;;;;;;5044495;28;20460;-89
2022/08/31 04:48:52;;;;;;;5.13;4.47;;;24.80;45.50;;;;;;5067918;28;20551;-88
2022/08/31 04:51:21;;;;;;;5.73;5.00;;;24.70;45.60;;;;;;5049224;28;21103;-89
2022/08/31 04:53:49;;;;;;;7.90;4.60;;;24.70;45.60;;;;;;5056874;28;20452;-90
2022/08/31 04:56:19;;;;;;;7.60;4.80;;;24.70;45.50;;;;;;5057871;28;20480;-88
2022/08/31 04:58:50;;;;;;;6.70;4.83;;;24.70;45.60;;;;;;5056153;28;20661;-87
2022/08/31 05:01:19;;;;;;;13.43;5.30;;;24.70;45.70;;;;;;5030490;28;20463;-89
2022/08/31 05:04:06;;;;;;;5.17;4.73;;;24.70;45.90;;;;;;5060303;28;20937;-87
2022/08/31 05:06:36;;;;;;;5.00;4.50;;;24.70;45.80;;;;;;5060469;28;21038;-88
2022/08/31 05:09:06;;;;;;;5.70;5.10;;;24.70;45.70;;;;;;5061034;28;20501;-90
2022/08/31 05:11:34;;;;;;;8.13;4.63;;;24.70;45.80;;;;;;5032766;28;20462;-87
2022/08/31 05:14:04;;;;;;;6.37;4.90;;;24.70;46.10;;;;;;5064585;28;20451;-87
2022/08/31 05:16:32;;;;;;;4.30;3.87;;;24.70;46.10;;;;;;5047440;28;20472;-87
2022/08/31 05:19:00;;;;;;;11.80;5.07;;;24.70;46.10;;;;;;5068302;28;20955;-87
2022/08/31 05:21:33;;;;;;;5.00;4.40;;;24.70;46.10;;;;;;5060747;28;20499;-89
2022/08/31 05:24:02;;;;;;;5.10;4.60;;;24.70;46.30;;;;;;5040590;28;20854;-89
2022/08/31 05:26:32;;;;;;;5.43;4.90;;;24.70;46.00;;;;;;5067331;28;20468;-88
2022/08/31 05:29:01;;;;;;;7.23;5.30;;;24.70;45.70;;;;;;5048757;28;20494;-88
2022/08/31 05:31:30;;;;;;;4.80;4.30;;;24.80;46.10;;;;;;5064894;28;20436;-88
2022/08/31 05:34:00;;;;;;;6.40;4.73;;;24.70;46.40;;;;;;5060753;28;20445;-88
2022/08/31 05:36:36;;;;;;;7.20;4.83;;;24.70;46.60;;;;;;5061316;28;20471;-89
2022/08/31 05:39:10;;;;;;;6.00;5.10;;;24.70;46.20;;;;;;5023734;28;20479;-86
2022/08/31 05:41:38;;;;;;;4.90;4.50;;;24.70;46.00;;;;;;5052286;28;20951;-88
2022/08/31 05:44:06;;;;;;;16.73;5.13;;;24.80;46.00;;;;;;5024652;28;20474;-87
2022/08/31 05:46:37;;;;;;;5.90;4.60;;;24.80;46.30;;;;;;5044518;28;20452;-89
2022/08/31 05:49:06;;;;;;;7.07;5.17;;;24.90;46.30;;;;;;5061361;28;20448;-89
2022/08/31 05:51:34;;;;;;;7.10;6.37;;;24.90;46.10;;;;;;5041653;28;20859;-88
2022/08/31 05:54:02;;;;;;;8.50;5.43;;;24.90;45.80;;;;;;5026381;28;20452;-88
2022/08/31 05:56:33;;;;;;;8.00;4.93;;;24.80;45.50;;;;;;5062603;28;20544;-90
2022/08/31 05:59:00;;;;;;;5.40;4.90;;;24.30;46.50;;;;;;5056286;28;20445;-88
2022/08/31 06:01:30;;;;;;;5.87;5.37;;;24.40;46.70;;;;;;5041838;28;20448;-89
2022/08/31 06:04:14;;;;;;;5.43;4.70;;;24.50;46.00;;;;;;5053983;28;20448;-88
2022/08/31 06:06:43;;;;;;;6.10;5.50;;;24.60;45.70;;;;;;5028382;28;20980;-88
2022/08/31 06:09:13;;;;;;;7.00;4.73;;;24.70;45.80;;;;;;5056219;28;20437;-88
2022/08/31 06:11:41;;;;;;;8.10;5.13;;;24.80;46.00;;;;;;5056933;28;20461;-88
2022/08/31 06:14:10;;;;;;;5.67;4.40;;;24.90;46.10;;;;;;5038434;28;20463;-89
2022/08/31 06:16:38;;;;;;;8.23;4.40;;;24.70;45.70;;;;;;5027978;28;20480;-88
2022/08/31 06:19:06;;;;;;;7.80;4.70;;;24.80;46.20;;;;;;5058471;28;20535;-89
2022/08/31 06:21:41;;;;;;;9.73;4.53;;;24.80;45.90;;;;;;5073714;28;21283;-87
2022/08/31 06:24:09;;;;;;;7.67;4.83;;;24.90;46.20;;;;;;5026268;28;20510;-89
2022/08/31 06:26:36;;;;;;;6.77;4.47;;;25.00;45.90;;;;;;5045901;28;20848;-88
2022/08/31 06:29:08;;;;;;;6.57;5.00;;;25.10;45.60;;;;;;5042054;28;20444;-87
2022/08/31 06:31:45;;;;;;;14.40;5.20;;;25.10;45.40;;;;;;5054517;28;20506;-88
2022/08/31 06:34:14;;;;;;;5.60;4.43;;;25.00;45.20;;;;;;5068269;28;20456;-86
2022/08/31 06:36:54;;;;;;;8.33;4.40;;;25.00;45.60;;;;;;5058497;28;20471;-87
2022/08/31 06:39:31;;;;;;;5.23;4.40;;;25.00;45.50;;;;;;5064139;28;20535;-88
2022/08/31 06:42:14;;;;;;;5.90;4.43;;;25.10;45.40;;;;;;5053603;28;21376;-85
2022/08/31 06:45:08;;;;;;;4.90;4.27;;;25.10;45.30;;;;;;5036293;28;20468;-87
2022/08/31 06:47:40;;;;;;;5.40;4.83;;;25.20;45.00;;;;;;5037672;28;20457;-87
2022/08/31 06:50:09;;;;;;;4.87;4.47;;;25.20;45.10;;;;;;5044436;28;20444;-87
2022/08/31 06:52:38;;;;;;;6.63;5.47;;;25.10;45.20;;;;;;5039178;28;20611;-88
2022/08/31 06:55:12;;;;;;;4.50;4.10;;;24.90;45.30;;;;;;5066483;28;20482;-88
2022/08/31 06:57:57;;;;;;;4.97;4.30;;;24.70;45.70;;;;;;5031664;28;20465;-88
2022/08/31 07:00:24;;;;;;;7.50;4.97;;;24.80;45.80;;;;;;5045935;28;20703;-87
2022/08/31 07:03:31;;;;;;;4.97;4.00;;;24.80;45.40;;;;;;5034080;28;20945;-87
2022/08/31 07:06:03;;;;;;;4.33;4.03;;;24.80;45.90;;;;;;5074491;28;20461;-89
2022/08/31 07:08:32;;;;;;;6.07;4.13;;;24.90;46.00;;;;;;5054592;28;20483;-87
2022/08/31 07:11:00;;;;;;;5.80;4.60;;;24.90;45.70;;;;;;5058738;28;20444;-87
2022/08/31 07:13:27;;;;;;;4.47;4.17;;;24.90;45.40;;;;;;5017492;28;20461;-85
2022/08/31 07:16:03;;;;;;;11.10;5.30;;;24.90;45.50;;;;;;5061575;28;20475;-87
2022/08/31 07:18:30;;;;;;;5.00;4.60;;;25.00;45.30;;;;;;5071898;28;20491;-90
2022/08/31 07:21:07;;;;;;;4.50;4.10;;;25.30;45.10;;;;;;5055654;28;20463;-87
2022/08/31 07:23:36;;;;;;;5.90;3.80;;;25.20;44.90;;;;;;5037029;28;20443;-87
2022/08/31 07:26:12;;;;;;;4.60;4.00;;;25.30;44.70;;;;;;5043959;28;20582;-87
2022/08/31 07:28:42;;;;;;;5.40;4.37;;;25.10;44.70;;;;;;5068154;28;20553;-88
2022/08/31 07:31:10;;;;;;;4.40;4.00;;;25.10;44.80;;;;;;5033729;28;20457;-86
2022/08/31 07:33:38;;;;;;;5.20;3.97;;;25.00;44.80;;;;;;5043313;28;20500;-87
2022/08/31 07:36:08;;;;;;;3.83;3.40;;;25.20;45.10;;;;;;5045482;28;20724;-87
2022/08/31 07:44:33;;;;;;;5.87;4.10;;;24.90;45.00;;;;;;5052472;28;20463;-88
2022/08/31 07:47:00;;;;;;;4.60;3.60;;;25.00;44.80;;;;;;5045981;28;20959;-87
2022/08/31 07:49:27;;;;;;;5.53;4.50;;;25.10;44.50;;;;;;5052375;28;20469;-86
2022/08/31 07:52:26;;;;;;;4.03;3.63;;;25.20;44.70;;;;;;5055710;28;20482;-88
2022/08/31 07:55:06;;;;;;;5.47;3.93;;;25.30;44.20;;;;;;5042236;28;20483;-87
2022/08/31 07:57:53;;;;;;;4.50;4.10;;;25.50;43.80;;;;;;5073586;28;20475;-87
2022/08/31 08:00:25;;;;;;;4.10;3.80;;;25.60;43.70;;;;;;5059937;28;20453;-86
2022/08/31 08:02:52;;;;;;;17.53;3.77;;;25.70;42.90;;;;;;5056802;28;20452;-88
2022/08/31 08:05:22;;;;;;;5.73;3.90;;;25.80;42.80;;;;;;5038027;28;20562;-88
2022/08/31 08:08:10;;;;;;;5.30;4.80;;;25.60;43.30;;;;;;5047163;28;21303;-87
2022/08/31 08:11:05;;;;;;;4.17;3.70;;;25.80;43.00;;;;;;5048794;28;20448;-89
2022/08/31 08:13:46;;;;;;;5.80;3.73;;;25.90;42.60;;;;;;5044223;28;20481;-89
2022/08/31 08:16:32;;;;;;;3.93;3.53;;;25.90;42.60;;;;;;5047735;28;20480;-89
2022/08/31 08:19:32;;;;;;;4.03;3.73;;;25.90;42.10;;;;;;5058406;28;20468;-87
2022/08/31 08:22:01;;;;;;;4.33;3.80;;;26.10;42.20;;;;;;5058713;28;20982;-88
2022/08/31 08:24:32;;;;;;;4.10;3.80;;;26.00;41.90;;;;;;5068785;28;20433;-87
2022/08/31 08:27:06;;;;;;;3.73;3.43;;;26.10;41.80;;;;;;5059826;28;20490;-89
2022/08/31 08:29:49;;;;;;;7.27;3.53;;;26.20;41.70;;;;;;5052140;28;20451;-87
2022/08/31 08:32:22;;;;;;;5.30;3.80;;;26.10;41.50;;;;;;5062235;28;20538;-87
2022/08/31 08:34:50;;;;;;;3.70;3.40;;;26.20;41.70;;;;;;5050807;28;20472;-89
2022/08/31 08:37:18;;;;;;;6.03;4.33;;;26.20;40.90;;;;;;5042566;28;20477;-88
2022/08/31 08:39:45;;;;;;;4.47;3.33;;;26.30;40.70;;;;;;5039678;28;20455;-88
2022/08/31 08:42:20;;;;;;;5.20;4.47;;;26.30;40.20;;;;;;5041073;28;20539;-88
2022/08/31 08:44:47;;;;;;;4.00;3.60;;;26.30;40.70;;;;;;5035927;28;20468;-88
2022/08/31 08:47:19;;;;;;;4.03;3.40;;;26.50;40.60;;;;;;5061682;28;20535;-87
2022/08/31 08:49:52;;;;;;;4.00;3.60;;;26.50;40.20;;;;;;5077087;28;20452;-87
2022/08/31 08:52:23;;;;;;;4.97;3.60;;;26.60;40.20;;;;;;5058093;28;20914;-88
2022/08/31 08:54:52;;;;;;;2.90;2.70;;;26.60;40.50;;;;;;5057835;28;20582;-88
2022/08/31 08:57:24;;;;;;;5.13;3.50;;;26.80;40.00;;;;;;5076973;28;20471;-88
2022/08/31 08:59:53;;;;;;;4.83;3.47;;;27.00;39.50;;;;;;5060797;28;20544;-88
2022/08/31 09:02:26;;;;;;;4.37;3.10;;;27.10;39.30;;;;;;5043877;28;20464;-87
2022/08/31 09:05:23;;;;;;;3.57;3.03;;;27.30;39.10;;;;;;5057196;28;20518;-90
2022/08/31 09:08:23;;;;;;;4.20;3.80;;;27.40;37.90;;;;;;5066497;28;20930;-87
2022/08/31 09:11:07;;;;;;;3.70;3.40;;;27.10;38.70;;;;;;5029968;28;20446;-87
2022/08/31 09:13:44;;;;;;;3.60;3.30;;;27.10;38.50;;;;;;5080068;28;20950;-89
2022/08/31 09:16:21;;;;;;;4.67;3.20;;;27.10;37.60;;;;;;5077923;28;20471;-87
2022/08/31 09:18:52;;;;;;;3.60;3.30;;;27.30;37.90;;;;;;5058417;28;20460;-88
2022/08/31 09:21:24;;;;;;;3.23;2.93;;;27.50;37.40;;;;;;5032136;28;20994;-87
2022/08/31 09:24:00;;;;;;;4.33;3.60;;;27.50;37.60;;;;;;5048010;28;20456;-89
2022/08/31 09:26:31;;;;;;;6.63;3.67;;;27.60;36.60;;;;;;5053670;28;20464;-88
2022/08/31 09:29:12;;;;;;;4.40;3.53;;;27.70;36.70;;;;;;5060328;28;20470;-88
2022/08/31 09:31:43;;;;;;;3.57;3.20;;;27.90;36.20;;;;;;5052478;28;21461;-86
2022/08/31 09:34:27;;;;;;;4.90;3.00;;;27.70;36.20;;;;;;5056138;28;20575;-88
2022/08/31 09:37:14;;;;;;;4.87;3.00;;;27.80;36.70;;;;;;5074698;28;21028;-87
2022/08/31 09:39:46;;;;;;;3.30;3.00;;;28.10;35.40;;;;;;5075436;28;21167;-87
2022/08/31 09:42:18;;;;;;;3.00;2.70;;;28.40;35.50;;;;;;5057367;28;20452;-86
2022/08/31 09:44:49;;;;;;;3.20;2.90;;;28.40;34.70;;;;;;5066001;28;20762;-87
2022/08/31 09:47:47;;;;;;;3.10;2.80;;;28.40;35.60;;;;;;5075817;28;20503;-87
2022/08/31 09:50:30;;;;;;;3.33;3.03;;;28.60;35.50;;;;;;5040012;28;20963;-89
2022/08/31 09:56:12;;;;;;;3.77;3.30;;;28.30;34.80;;;;;;5056228;28;20573;-89
2022/08/31 09:58:45;;;;;;;3.40;3.10;;;28.30;35.40;;;;;;5040747;28;20463;-88
2022/08/31 10:01:21;;;;;;;4.17;3.13;;;28.50;35.10;;;;;;5078804;28;20457;-89
2022/08/31 10:03:48;;;;;;;4.37;3.23;;;28.70;35.10;;;;;;5077596;28;20442;-87
2022/08/31 10:06:40;;;;;;;3.40;3.10;;;28.90;34.10;;;;;;5073999;28;20479;-89
2022/08/31 10:09:13;;;;;;;3.53;3.23;;;28.80;33.80;;;;;;5032535;28;20613;-87
2022/08/31 10:11:46;;;;;;;4.23;3.30;;;28.80;34.40;;;;;;5074068;28;20467;-87
2022/08/31 10:14:25;;;;;;;3.70;3.40;;;29.00;34.20;;;;;;5057447;28;20447;-88
2022/08/31 10:17:01;;;;;;;3.93;2.97;;;28.80;33.90;;;;;;5042521;28;20479;-89
2022/08/31 10:19:50;;;;;;;3.47;3.17;;;28.70;33.60;;;;;;5073610;28;21055;-89
2022/08/31 10:22:27;;;;;;;3.37;2.93;;;28.40;33.90;;;;;;5053643;28;20475;-88
2022/08/31 10:25:10;;;;;;;4.43;3.40;;;28.20;34.20;;;;;;5054896;28;21047;-87
2022/08/31 10:27:42;;;;;;;7.60;3.67;;;28.40;34.00;;;;;;5041150;28;20440;-88
2022/08/31 10:30:26;;;;;;;3.30;3.00;;;28.50;34.50;;;;;;5072729;28;20449;-88
2022/08/31 10:33:00;;;;;;;3.90;3.00;;;28.60;33.60;;;;;;5055627;28;20441;-87
2022/08/31 10:35:36;;;;;;;3.47;3.17;;;28.60;33.90;;;;;;5076554;28;20475;-87
2022/08/31 10:38:11;;;;;;;3.67;3.37;;;28.60;34.00;;;;;;5074452;28;20499;-89
2022/08/31 10:40:43;;;;;;;3.90;3.17;;;28.60;33.90;;;;;;5055430;28;20939;-87
2022/08/31 10:43:17;;;;;;;3.57;3.20;;;28.60;33.90;;;;;;5072653;28;20456;-87
2022/08/31 10:45:47;;;;;;;5.20;3.87;;;28.40;34.10;;;;;;5039197;28;20472;-87
2022/08/31 10:48:18;;;;;;;3.53;3.27;;;28.50;34.30;;;;;;5074564;28;20945;-88
2022/08/31 10:50:52;;;;;;;5.40;3.57;;;28.40;33.90;;;;;;5062410;28;20455;-89
2022/08/31 10:53:32;;;;;;;3.80;3.10;;;28.40;34.10;;;;;;5054295;28;20452;-87
2022/08/31 10:56:13;;;;;;;4.13;3.77;;;28.40;34.20;;;;;;5046281;28;20508;-87
2022/08/31 10:58:55;;;;;;;5.30;3.47;;;28.40;34.20;;;;;;5072711;28;20873;-86
2022/08/31 11:01:32;;;;;;;4.03;3.63;;;28.50;34.20;;;;;;5056857;28;20452;-89
2022/08/31 11:04:33;;;;;;;4.90;3.30;;;28.60;33.50;;;;;;5064199;28;20432;-87
2022/08/31 11:07:11;;;;;;;7.90;3.30;;;28.20;34.20;;;;;;5055563;28;20456;-88
2022/08/31 11:09:42;;;;;;;3.30;3.00;;;28.30;33.60;;;;;;5037453;28;21114;-91
2022/08/31 11:12:14;;;;;;;3.20;2.83;;;28.20;33.60;;;;;;5039598;28;20865;-88
2022/08/31 11:15:12;;;;;;;4.73;3.23;;;28.20;33.20;;;;;;5072233;28;20439;-90
2022/08/31 11:18:14;;;;;;;4.50;3.80;;;28.00;33.80;;;;;;5073482;28;20991;-88
2022/08/31 11:21:04;;;;;;;3.40;2.83;;;28.20;33.40;;;;;;5054643;28;20436;-88
2022/08/31 11:23:49;;;;;;;3.90;3.33;;;28.30;32.50;;;;;;5055782;28;20966;-88
2022/08/31 11:26:51;;;;;;;3.90;3.60;;;28.20;32.90;;;;;;5067272;28;20478;-90
2022/08/31 11:29:31;;;;;;;3.50;2.87;;;28.40;32.70;;;;;;5035862;28;20452;-88
2022/08/31 11:32:05;;;;;;;4.97;3.53;;;28.50;32.60;;;;;;5054751;28;20943;-87
2022/08/31 11:34:45;;;;;;;3.13;2.93;;;28.50;32.50;;;;;;5069472;28;20444;-88
2022/08/31 11:37:53;;;;;;;3.13;2.90;;;28.80;33.10;;;;;;5052530;28;21049;-90
2022/08/31 11:41:12;;;;;;;4.50;2.77;;;28.90;32.00;;;;;;5052546;28;21061;-89
2022/08/31 11:43:50;;;;;;;3.43;3.13;;;28.60;32.20;;;;;;5070334;28;20475;-88
2022/08/31 11:46:44;;;;;;;3.80;2.93;;;28.70;32.70;;;;;;5070502;28;20468;-88
2022/08/31 11:49:39;;;;;;;3.97;3.27;;;28.70;32.40;;;;;;5070994;28;20451;-88
2022/08/31 11:52:13;;;;;;;3.73;3.07;;;28.80;31.60;;;;;;5070353;28;20452;-87
2022/08/31 11:55:07;;;;;;;3.30;3.00;;;28.50;32.40;;;;;;5074945;28;20465;-88
2022/08/31 11:58:10;;;;;;;3.87;2.70;;;28.60;31.80;;;;;;5071373;28;20954;-87
2022/08/31 12:00:46;;;;;;;3.60;2.83;;;28.70;31.40;;;;;;5054729;28;20491;-88
2022/08/31 12:03:42;;;;;;;3.60;3.00;;;28.50;32.30;;;;;;5056236;28;21028;-85
2022/08/31 12:06:32;;;;;;;3.20;2.90;;;28.60;32.50;;;;;;5065447;28;20566;-87
2022/08/31 12:09:17;;;;;;;3.40;3.10;;;28.60;31.50;;;;;;5070939;28;20559;-87
2022/08/31 12:11:52;;;;;;;3.00;2.80;;;28.70;31.20;;;;;;5069756;28;20488;-89
2022/08/31 12:14:25;;;;;;;3.67;3.37;;;28.70;31.60;;;;;;5074380;28;20448;-89
2022/08/31 12:17:08;;;;;;;3.57;3.27;;;28.80;31.70;;;;;;5075837;28;21015;-89
2022/08/31 12:20:04;;;;;;;4.30;2.80;;;28.80;31.10;;;;;;5071827;28;20817;-88
2022/08/31 12:26:03;;;;;;;5.03;2.90;;;28.70;31.20;;;;;;5074390;28;20479;-88
2022/08/31 12:28:45;;;;;;;3.53;2.80;;;29.00;31.30;;;;;;5074675;28;20428;-87
2022/08/31 12:31:17;;;;;;;4.50;2.53;;;29.00;30.10;;;;;;5051852;28;20969;-88
2022/08/31 12:33:54;;;;;;;2.90;2.70;;;28.80;31.30;;;;;;5072451;28;20448;-88
2022/08/31 12:36:27;;;;;;;3.10;2.80;;;28.70;31.80;;;;;;5053882;28;20842;-89
2022/08/31 12:39:06;;;;;;;2.70;2.50;;;28.90;31.90;;;;;;5055856;28;20832;-87
2022/08/31 12:41:33;;;;;;;3.23;2.93;;;29.10;31.90;;;;;;5037586;28;20444;-88
2022/08/31 12:44:02;;;;;;;3.30;3.00;;;29.10;30.70;;;;;;5043258;28;20454;-87
2022/08/31 12:46:41;;;;;;;9.87;3.57;;;29.10;30.70;;;;;;5072433;28;20472;-89
2022/08/31 12:49:35;;;;;;;9.03;2.50;;;28.90;31.10;;;;;;5073765;28;20951;-88
2022/08/31 12:52:14;;;;;;;3.40;3.10;;;28.90;30.80;;;;;;5037566;28;20441;-87
2022/08/31 12:55:17;;;;;;;3.40;2.90;;;29.20;30.80;;;;;;5076813;28;20459;-86
2022/08/31 12:57:53;;;;;;;2.80;2.60;;;29.50;31.20;;;;;;5068152;28;20459;-88
2022/08/31 13:00:25;;;;;;;3.17;2.87;;;29.60;30.00;;;;;;5075260;28;20469;-88
2022/08/31 13:02:55;;;;;;;7.30;3.60;;;29.30;30.40;;;;;;5074567;28;20888;-87
2022/08/31 13:05:25;;;;;;;3.80;3.50;;;29.40;30.70;;;;;;5076770;28;20461;-90
2022/08/31 13:07:53;;;;;;;3.00;2.80;;;29.20;30.70;;;;;;5077877;28;20440;-89
2022/08/31 13:10:33;;;;;;;3.80;3.50;;;28.80;31.00;;;;;;5075880;28;20506;-87
2022/08/31 13:13:02;;;;;;;5.80;3.30;;;29.00;31.20;;;;;;5048215;28;20975;-87
2022/08/31 13:15:34;;;;;;;4.50;2.73;;;29.00;30.60;;;;;;5060070;28;20468;-87
2022/08/31 13:18:02;;;;;;;4.57;3.10;;;29.00;31.20;;;;;;5076626;28;20510;-88
2022/08/31 13:20:34;;;;;;;3.47;3.17;;;29.00;30.80;;;;;;5072475;28;20479;-87
2022/08/31 13:23:02;;;;;;;3.27;2.97;;;29.10;30.70;;;;;;5057948;28;20440;-90
2022/08/31 13:25:34;;;;;;;3.40;2.77;;;29.10;30.30;;;;;;5056729;28;20475;-89
2022/08/31 13:28:04;;;;;;;6.03;3.20;;;29.10;30.00;;;;;;5073850;28;20960;-89
2022/08/31 13:30:37;;;;;;;8.67;2.90;;;29.20;30.20;;;;;;5057998;28;20878;-88
2022/08/31 13:33:22;;;;;;;3.30;3.00;;;29.40;30.00;;;;;;5029123;28;20694;-88
2022/08/31 13:35:51;;;;;;;3.33;2.87;;;29.40;29.80;;;;;;5071064;28;20476;-88